Terminal Aerodrome Forecast
Issued by NWS Topeka, KS

Home | Current Version | Previous Version | Text Only | Print | Product List | Glossary On
Versions: 1 2 3 4 5 6 7 8 9 10 11 12 13 14 15 16
532
FTUS43 KTOP 270520
TAFTOP
TAF
KTOP 270520Z 2706/2806 09003KT P6SM SCT060 BKN150
     FM270900 10002KT P6SM VCTS SCT020 BKN035CB
     FM271400 15006KT P6SM SCT045=

USA.gov is the U.S. government's official web portal to all federal, state and local government web resources and services.